sensor_id;sensor_type;location;lat;lon;timestamp;pressure;altitude;pressure_sealevel;temperature;humidity
54369;BME280;40266;52.434;17.056;2024-02-21T00:02:17;101140.61;;;5.63;100.00
54369;BME280;40266;52.434;17.056;2024-02-21T00:08:45;101139.39;;;5.63;100.00
54369;BME280;40266;52.434;17.056;2024-02-21T00:12:10;101134.71;;;5.64;100.00
54369;BME280;40266;52.434;17.056;2024-02-21T00:19:00;101118.93;;;5.62;100.00
54369;BME280;40266;52.434;17.056;2024-02-21T00:22:03;101116.85;;;5.62;100.00
54369;BME280;40266;52.434;17.056;2024-02-21T00:25:24;101118.40;;;5.62;100.00
54369;BME280;40266;52.434;17.056;2024-02-21T00:29:05;101114.91;;;5.59;100.00
54369;BME280;40266;52.434;17.056;2024-02-21T00:36:09;101117.64;;;5.55;100.00
54369;BME280;40266;52.434;17.056;2024-02-21T00:46:19;101100.48;;;5.37;100.00
54369;BME280;40266;52.434;17.056;2024-02-21T00:50:08;101100.96;;;5.34;100.00
54369;BME280;40266;52.434;17.056;2024-02-21T00:57:34;101098.10;;;5.26;100.00
54369;BME280;40266;52.434;17.056;2024-02-21T01:00:38;101089.26;;;5.24;100.00
54369;BME280;40266;52.434;17.056;2024-02-21T01:03:44;101085.61;;;5.23;100.00
54369;BME280;40266;52.434;17.056;2024-02-21T01:07:11;101077.78;;;5.20;100.00
54369;BME280;40266;52.434;17.056;2024-02-21T01:14:13;101066.39;;;5.22;100.00
54369;BME280;40266;52.434;17.056;2024-02-21T01:17:51;101060.48;;;5.22;100.00
54369;BME280;40266;52.434;17.056;2024-02-21T01:24:31;101045.29;;;5.26;100.00
54369;BME280;40266;52.434;17.056;2024-02-21T01:42:03;101033.16;;;5.26;100.00
54369;BME280;40266;52.434;17.056;2024-02-21T01:46:10;101031.79;;;5.26;100.00
54369;BME280;40266;52.434;17.056;2024-02-21T01:52:28;101029.73;;;5.28;100.00
54369;BME280;40266;52.434;17.056;2024-02-21T01:55:37;101028.88;;;5.31;100.00
54369;BME280;40266;52.434;17.056;2024-02-21T01:58:40;101026.48;;;5.32;100.00
54369;BME280;40266;52.434;17.056;2024-02-21T02:20:38;101016.58;;;5.48;100.00
54369;BME280;40266;52.434;17.056;2024-02-21T02:31:10;101008.64;;;5.52;100.00
54369;BME280;40266;52.434;17.056;2024-02-21T02:38:02;101004.51;;;5.55;100.00
54369;BME280;40266;52.434;17.056;2024-02-21T02:41:26;101001.06;;;5.56;100.00
54369;BME280;40266;52.434;17.056;2024-02-21T02:44:37;100999.00;;;5.58;100.00
54369;BME280;40266;52.434;17.056;2024-02-21T02:48:31;100992.23;;;5.58;100.00
54369;BME280;40266;52.434;17.056;2024-02-21T02:55:33;100988.95;;;5.60;100.00
54369;BME280;40266;52.434;17.056;2024-02-21T02:58:55;100983.23;;;5.60;100.00
54369;BME280;40266;52.434;17.056;2024-02-21T03:09:32;100974.10;;;5.65;100.00
54369;BME280;40266;52.434;17.056;2024-02-21T03:13:26;100970.80;;;5.66;100.00
54369;BME280;40266;52.434;17.056;2024-02-21T03:20:29;100964.41;;;5.67;100.00
54369;BME280;40266;52.434;17.056;2024-02-21T03:23:34;100957.67;;;5.69;100.00
54369;BME280;40266;52.434;17.056;2024-02-21T03:34:10;100950.40;;;5.70;100.00
54369;BME280;40266;52.434;17.056;2024-02-21T03:41:40;100951.59;;;5.68;100.00
54369;BME280;40266;52.434;17.056;2024-02-21T03:44:52;100950.38;;;5.66;100.00
54369;BME280;40266;52.434;17.056;2024-02-21T03:47:58;100950.54;;;5.66;100.00
54369;BME280;40266;52.434;17.056;2024-02-21T03:58:15;100930.98;;;5.69;100.00
54369;BME280;40266;52.434;17.056;2024-02-21T04:05:11;100923.34;;;5.66;100.00
54369;BME280;40266;52.434;17.056;2024-02-21T04:12:03;100918.63;;;5.62;100.00
54369;BME280;40266;52.434;17.056;2024-02-21T04:15:25;100912.05;;;5.63;100.00
54369;BME280;40266;52.434;17.056;2024-02-21T04:18:59;100911.72;;;5.64;100.00
54369;BME280;40266;52.434;17.056;2024-02-21T04:22:45;100907.39;;;5.64;100.00
54369;BME280;40266;52.434;17.056;2024-02-21T04:29:27;100892.83;;;5.64;100.00
54369;BME280;40266;52.434;17.056;2024-02-21T04:32:16;100892.31;;;5.65;100.00
54369;BME280;40266;52.434;17.056;2024-02-21T04:38:22;100893.02;;;5.68;100.00
54369;BME280;40266;52.434;17.056;2024-02-21T04:45:26;100891.11;;;5.66;100.00
54369;BME280;40266;52.434;17.056;2024-02-21T04:48:52;100881.39;;;5.66;100.00
54369;BME280;40266;52.434;17.056;2024-02-21T04:52:26;100877.23;;;5.65;100.00
54369;BME280;40266;52.434;17.056;2024-02-21T04:55:34;100872.73;;;5.66;100.00
54369;BME280;40266;52.434;17.056;2024-02-21T04:59:20;100873.95;;;5.66;100.00
54369;BME280;40266;52.434;17.056;2024-02-21T05:03:03;100869.63;;;5.67;100.00
54369;BME280;40266;52.434;17.056;2024-02-21T05:06:39;100862.35;;;5.68;100.00
54369;BME280;40266;52.434;17.056;2024-02-21T05:10:01;100860.60;;;5.66;100.00
54369;BME280;40266;52.434;17.056;2024-02-21T05:13:28;100857.67;;;5.67;100.00
54369;BME280;40266;52.434;17.056;2024-02-21T05:16:54;100856.81;;;5.69;100.00
54369;BME280;40266;52.434;17.056;2024-02-21T05:20:19;100848.16;;;5.71;100.00
54369;BME280;40266;52.434;17.056;2024-02-21T05:23:22;100849.21;;;5.72;100.00
54369;BME280;40266;52.434;17.056;2024-02-21T05:26:34;100846.95;;;5.70;100.00
54369;BME280;40266;52.434;17.056;2024-02-21T05:33:43;100840.18;;;5.70;100.00
54369;BME280;40266;52.434;17.056;2024-02-21T05:36:31;100839.16;;;5.71;100.00
54369;BME280;40266;52.434;17.056;2024-02-21T05:40:03;100838.11;;;5.72;100.00
54369;BME280;40266;52.434;17.056;2024-02-21T05:43:09;100835.33;;;5.70;100.00
54369;BME280;40266;52.434;17.056;2024-02-21T05:50:44;100827.20;;;5.71;100.00
54369;BME280;40266;52.434;17.056;2024-02-21T05:53:37;100826.50;;;5.71;100.00
54369;BME280;40266;52.434;17.056;2024-02-21T05:57:07;100824.60;;;5.73;100.00
54369;BME280;40266;52.434;17.056;2024-02-21T06:00:51;100831.03;;;5.74;100.00
54369;BME280;40266;52.434;17.056;2024-02-21T06:04:00;100824.09;;;5.74;100.00
54369;BME280;40266;52.434;17.056;2024-02-21T06:06:47;100818.55;;;5.75;100.00
54369;BME280;40266;52.434;17.056;2024-02-21T06:14:06;100815.63;;;5.81;100.00
54369;BME280;40266;52.434;17.056;2024-02-21T06:25:39;100815.45;;;5.79;100.00
54369;BME280;40266;52.434;17.056;2024-02-21T06:28:55;100812.85;;;5.81;100.00
54369;BME280;40266;52.434;17.056;2024-02-21T06:50:09;100792.27;;;5.91;100.00
54369;BME280;40266;52.434;17.056;2024-02-21T06:56:58;100796.30;;;5.94;100.00
54369;BME280;40266;52.434;17.056;2024-02-21T07:00:26;100795.09;;;5.96;100.00
54369;BME280;40266;52.434;17.056;2024-02-21T07:23:27;100771.05;;;6.12;100.00
54369;BME280;40266;52.434;17.056;2024-02-21T07:40:51;100757.38;;;6.30;100.00
54369;BME280;40266;52.434;17.056;2024-02-21T07:44:18;100750.42;;;6.33;100.00
54369;BME280;40266;52.434;17.056;2024-02-21T07:47:24;100747.14;;;6.35;100.00
54369;BME280;40266;52.434;17.056;2024-02-21T07:51:01;100752.69;;;6.36;100.00
54369;BME280;40266;52.434;17.056;2024-02-21T07:58:00;100752.88;;;6.38;100.00
54369;BME280;40266;52.434;17.056;2024-02-21T08:01:33;100750.27;;;6.35;100.00
54369;BME280;40266;52.434;17.056;2024-02-21T08:08:30;100742.29;;;6.36;100.00
54369;BME280;40266;52.434;17.056;2024-02-21T08:29:20;100751.33;;;6.71;100.00
54369;BME280;40266;52.434;17.056;2024-02-21T08:36:29;100740.72;;;6.89;100.00
54369;BME280;40266;52.434;17.056;2024-02-21T08:46:53;100743.50;;;6.91;100.00
54369;BME280;40266;52.434;17.056;2024-02-21T08:50:06;100741.92;;;6.93;100.00
54369;BME280;40266;52.434;17.056;2024-02-21T08:53:22;100737.05;;;6.97;100.00
54369;BME280;40266;52.434;17.056;2024-02-21T08:56:42;100737.58;;;6.97;100.00
54369;BME280;40266;52.434;17.056;2024-02-21T09:03:46;100717.08;;;6.94;100.00
54369;BME280;40266;52.434;17.056;2024-02-21T09:07:12;100713.80;;;6.91;100.00
54369;BME280;40266;52.434;17.056;2024-02-21T09:10:24;100719.17;;;6.90;100.00
54369;BME280;40266;52.434;17.056;2024-02-21T09:13:56;100720.22;;;6.90;100.00
54369;BME280;40266;52.434;17.056;2024-02-21T09:16:51;100713.27;;;6.92;100.00
54369;BME280;40266;52.434;17.056;2024-02-21T09:19:47;100707.70;;;6.99;100.00
54369;BME280;40266;52.434;17.056;2024-02-21T09:23:17;100705.44;;;7.03;100.00
54369;BME280;40266;52.434;17.056;2024-02-21T09:26:12;100704.91;;;7.09;100.00
54369;BME280;40266;52.434;17.056;2024-02-21T09:39:30;100710.61;;;7.20;100.00
54369;BME280;40266;52.434;17.056;2024-02-21T09:43:03;100715.30;;;7.21;100.00
54369;BME280;40266;52.434;17.056;2024-02-21T09:46:02;100712.34;;;7.19;100.00
54369;BME280;40266;52.434;17.056;2024-02-21T09:52:52;100704.55;;;7.13;100.00
54369;BME280;40266;52.434;17.056;2024-02-21T09:56:10;100695.34;;;7.13;100.00
54369;BME280;40266;52.434;17.056;2024-02-21T09:59:07;100700.38;;;7.15;100.00
54369;BME280;40266;52.434;17.056;2024-02-21T10:02:03;100708.19;;;7.14;100.00
54369;BME280;40266;52.434;17.056;2024-02-21T10:27:01;100693.05;;;7.26;100.00
54369;BME280;40266;52.434;17.056;2024-02-21T10:30:26;100689.74;;;7.28;100.00
54369;BME280;40266;52.434;17.056;2024-02-21T10:33:56;100685.74;;;7.29;100.00
54369;BME280;40266;52.434;17.056;2024-02-21T10:41:10;100680.66;;;7.40;100.00
54369;BME280;40266;52.434;17.056;2024-02-21T10:53:09;100652.75;;;7.89;100.00
54369;BME280;40266;52.434;17.056;2024-02-21T10:59:26;100635.89;;;8.33;100.00
54369;BME280;40266;52.434;17.056;2024-02-21T11:02:29;100632.97;;;8.51;100.00
54369;BME280;40266;52.434;17.056;2024-02-21T11:05:44;100623.75;;;8.68;100.00
54369;BME280;40266;52.434;17.056;2024-02-21T11:12:36;100611.84;;;8.90;100.00
54369;BME280;40266;52.434;17.056;2024-02-21T11:16:05;100608.67;;;8.91;100.00
54369;BME280;40266;52.434;17.056;2024-02-21T11:20:31;100606.93;;;8.93;100.00
54369;BME280;40266;52.434;17.056;2024-02-21T11:23:11;100605.56;;;8.90;100.00
54369;BME280;40266;52.434;17.056;2024-02-21T11:26:49;100606.13;;;8.86;100.00
54369;BME280;40266;52.434;17.056;2024-02-21T11:30:12;100594.88;;;8.80;100.00
54369;BME280;40266;52.434;17.056;2024-02-21T11:33:44;100584.19;;;8.72;100.00
54369;BME280;40266;52.434;17.056;2024-02-21T11:37:15;100577.97;;;8.67;100.00
54369;BME280;40266;52.434;17.056;2024-02-21T11:40:04;100567.32;;;8.70;100.00
54369;BME280;40266;52.434;17.056;2024-02-21T11:43:00;100566.09;;;8.70;100.00
54369;BME280;40266;52.434;17.056;2024-02-21T11:46:27;100563.69;;;8.67;100.00
54369;BME280;40266;52.434;17.056;2024-02-21T11:50:20;100566.01;;;8.62;100.00
54369;BME280;40266;52.434;17.056;2024-02-21T11:53:52;100562.73;;;8.60;100.00
54369;BME280;40266;52.434;17.056;2024-02-21T11:57:07;100559.42;;;8.59;100.00
54369;BME280;40266;52.434;17.056;2024-02-21T12:00:45;100554.70;;;8.61;100.00
54369;BME280;40266;52.434;17.056;2024-02-21T12:04:09;100558.73;;;8.59;100.00
54369;BME280;40266;52.434;17.056;2024-02-21T12:07:16;100562.05;;;8.57;100.00
54369;BME280;40266;52.434;17.056;2024-02-21T12:10:18;100557.38;;;8.55;100.00
54369;BME280;40266;52.434;17.056;2024-02-21T12:13:17;100556.70;;;8.53;100.00
54369;BME280;40266;52.434;17.056;2024-02-21T12:16:42;100550.30;;;8.50;100.00
54369;BME280;40266;52.434;17.056;2024-02-21T12:19:51;100548.60;;;8.47;100.00
54369;BME280;40266;52.434;17.056;2024-02-21T12:23:02;100545.99;;;8.45;100.00
54369;BME280;40266;52.434;17.056;2024-02-21T12:25:56;100541.33;;;8.43;100.00
54369;BME280;40266;52.434;17.056;2024-02-21T12:29:02;100536.80;;;8.42;100.00
54369;BME280;40266;52.434;17.056;2024-02-21T12:32:05;100531.59;;;8.43;100.00
54369;BME280;40266;52.434;17.056;2024-02-21T12:35:17;100521.29;;;8.45;100.00
54369;BME280;40266;52.434;17.056;2024-02-21T12:38:28;100526.13;;;8.48;100.00
54369;BME280;40266;52.434;17.056;2024-02-21T12:41:33;100525.29;;;8.46;100.00
54369;BME280;40266;52.434;17.056;2024-02-21T12:44:38;100526.68;;;8.45;100.00
54369;BME280;40266;52.434;17.056;2024-02-21T12:47:45;100523.88;;;8.47;100.00
54369;BME280;40266;52.434;17.056;2024-02-21T12:50:57;100515.17;;;8.48;100.00
54369;BME280;40266;52.434;17.056;2024-02-21T12:54:39;100512.86;;;8.52;100.00
54369;BME280;40266;52.434;17.056;2024-02-21T12:58:04;100510.27;;;8.51;100.00
54369;BME280;40266;52.434;17.056;2024-02-21T13:01:19;100502.58;;;8.53;100.00
54369;BME280;40266;52.434;17.056;2024-02-21T13:04:36;100498.02;;;8.56;100.00
54369;BME280;40266;52.434;17.056;2024-02-21T13:07:47;100498.17;;;8.57;100.00
54369;BME280;40266;52.434;17.056;2024-02-21T13:10:59;100497.45;;;8.60;100.00
54369;BME280;40266;52.434;17.056;2024-02-21T13:17:37;100497.96;;;8.60;100.00
54369;BME280;40266;52.434;17.056;2024-02-21T13:20:57;100497.81;;;8.59;100.00
54369;BME280;40266;52.434;17.056;2024-02-21T13:24:06;100493.98;;;8.58;100.00
54369;BME280;40266;52.434;17.056;2024-02-21T13:31:17;100488.41;;;8.58;100.00
54369;BME280;40266;52.434;17.056;2024-02-21T13:34:42;100488.23;;;8.58;100.00
54369;BME280;40266;52.434;17.056;2024-02-21T13:37:41;100479.91;;;8.56;100.00
54369;BME280;40266;52.434;17.056;2024-02-21T13:40:46;100478.57;;;8.52;100.00
54369;BME280;40266;52.434;17.056;2024-02-21T13:47:47;100466.40;;;8.51;100.00
54369;BME280;40266;52.434;17.056;2024-02-21T13:50:51;100462.05;;;8.50;100.00
54369;BME280;40266;52.434;17.056;2024-02-21T13:54:32;100461.88;;;8.51;100.00
54369;BME280;40266;52.434;17.056;2024-02-21T13:57:48;100465.34;;;8.52;100.00
54369;BME280;40266;52.434;17.056;2024-02-21T14:04:34;100462.04;;;8.53;100.00
54369;BME280;40266;52.434;17.056;2024-02-21T14:07:57;100463.09;;;8.52;100.00
54369;BME280;40266;52.434;17.056;2024-02-21T14:11:08;100464.65;;;8.51;100.00
54369;BME280;40266;52.434;17.056;2024-02-21T14:14:03;100461.00;;;8.52;100.00
54369;BME280;40266;52.434;17.056;2024-02-21T14:17:29;100456.66;;;8.50;100.00
54369;BME280;40266;52.434;17.056;2024-02-21T14:21:16;100457.38;;;8.49;100.00
54369;BME280;40266;52.434;17.056;2024-02-21T14:24:19;100458.77;;;8.47;100.00
54369;BME280;40266;52.434;17.056;2024-02-21T14:27:13;100460.02;;;8.47;100.00
54369;BME280;40266;52.434;17.056;2024-02-21T14:30:11;100453.94;;;8.45;100.00
54369;BME280;40266;52.434;17.056;2024-02-21T14:32:59;100456.53;;;8.46;100.00
54369;BME280;40266;52.434;17.056;2024-02-21T14:36:30;100454.45;;;8.46;100.00
54369;BME280;40266;52.434;17.056;2024-02-21T14:39:30;100452.89;;;8.45;100.00
54369;BME280;40266;52.434;17.056;2024-02-21T14:42:59;100448.20;;;8.44;100.00
54369;BME280;40266;52.434;17.056;2024-02-21T14:46:15;100445.95;;;8.43;100.00
54369;BME280;40266;52.434;17.056;2024-02-21T14:49:04;100440.04;;;8.43;100.00
54369;BME280;40266;52.434;17.056;2024-02-21T14:55:34;100430.48;;;8.40;100.00
54369;BME280;40266;52.434;17.056;2024-02-21T15:02:05;100418.66;;;8.40;100.00
54369;BME280;40266;52.434;17.056;2024-02-21T15:05:23;100420.08;;;8.37;100.00
54369;BME280;40266;52.434;17.056;2024-02-21T15:08:40;100420.42;;;8.37;100.00
54369;BME280;40266;52.434;17.056;2024-02-21T15:11:32;100412.23;;;8.38;100.00
54369;BME280;40266;52.434;17.056;2024-02-21T15:14:32;100409.96;;;8.39;100.00
54369;BME280;40266;52.434;17.056;2024-02-21T15:17:55;100407.17;;;8.37;100.00
54369;BME280;40266;52.434;17.056;2024-02-21T15:25:04;100410.34;;;8.37;100.00
54369;BME280;40266;52.434;17.056;2024-02-21T15:31:59;100404.92;;;8.38;100.00
54369;BME280;40266;52.434;17.056;2024-02-21T15:35:17;100405.61;;;8.38;100.00
54369;BME280;40266;52.434;17.056;2024-02-21T15:38:33;100406.65;;;8.38;100.00
54369;BME280;40266;52.434;17.056;2024-02-21T15:41:55;100403.89;;;8.37;100.00
54369;BME280;40266;52.434;17.056;2024-02-21T15:48:19;100406.38;;;8.32;100.00
54369;BME280;40266;52.434;17.056;2024-02-21T15:51:54;100406.40;;;8.31;100.00
54369;BME280;40266;52.434;17.056;2024-02-21T15:58:49;100396.14;;;8.31;100.00
54369;BME280;40266;52.434;17.056;2024-02-21T16:01:51;100394.60;;;8.28;100.00
54369;BME280;40266;52.434;17.056;2024-02-21T16:05:05;100395.33;;;8.26;100.00
54369;BME280;40266;52.434;17.056;2024-02-21T16:18:48;100382.51;;;8.22;100.00
54369;BME280;40266;52.434;17.056;2024-02-21T16:22:31;100381.11;;;8.22;100.00
54369;BME280;40266;52.434;17.056;2024-02-21T16:25:46;100378.89;;;8.19;100.00
54369;BME280;40266;52.434;17.056;2024-02-21T16:32:13;100377.17;;;8.15;100.00
54369;BME280;40266;52.434;17.056;2024-02-21T16:35:24;100377.34;;;8.17;100.00
54369;BME280;40266;52.434;17.056;2024-02-21T16:38:30;100377.54;;;8.15;100.00
54369;BME280;40266;52.434;17.056;2024-02-21T16:41:44;100378.75;;;8.15;100.00
54369;BME280;40266;52.434;17.056;2024-02-21T16:48:05;100375.46;;;8.15;100.00
54369;BME280;40266;52.434;17.056;2024-02-21T16:51:04;100380.16;;;8.15;100.00
54369;BME280;40266;52.434;17.056;2024-02-21T16:54:56;100378.91;;;8.17;100.00
54369;BME280;40266;52.434;17.056;2024-02-21T17:01:34;100378.23;;;8.15;100.00
54369;BME280;40266;52.434;17.056;2024-02-21T17:05:03;100370.60;;;8.13;100.00
54369;BME280;40266;52.434;17.056;2024-02-21T17:08:20;100370.80;;;8.11;100.00
54369;BME280;40266;52.434;17.056;2024-02-21T17:18:33;100355.91;;;8.06;100.00
54369;BME280;40266;52.434;17.056;2024-02-21T17:21:30;100355.23;;;8.06;100.00
54369;BME280;40266;52.434;17.056;2024-02-21T17:25:08;100351.56;;;8.06;100.00
54369;BME280;40266;52.434;17.056;2024-02-21T17:32:05;100345.34;;;8.03;100.00
54369;BME280;40266;52.434;17.056;2024-02-21T17:41:42;100326.59;;;8.00;100.00
54369;BME280;40266;52.434;17.056;2024-02-21T17:44:45;100322.76;;;8.00;100.00
54369;BME280;40266;52.434;17.056;2024-02-21T17:47:50;100320.81;;;8.03;100.00
54369;BME280;40266;52.434;17.056;2024-02-21T17:50:36;100319.05;;;8.05;100.00
54369;BME280;40266;52.434;17.056;2024-02-21T17:53:22;100312.43;;;8.05;100.00
54369;BME280;40266;52.434;17.056;2024-02-21T17:56:18;100306.52;;;8.06;100.00
54369;BME280;40266;52.434;17.056;2024-02-21T17:59:23;100303.70;;;8.09;100.00
54369;BME280;40266;52.434;17.056;2024-02-21T18:02:55;100304.40;;;8.09;100.00
54369;BME280;40266;52.434;17.056;2024-02-21T18:09:46;100295.85;;;8.10;100.00
54369;BME280;40266;52.434;17.056;2024-02-21T18:13:13;100293.61;;;8.09;100.00
54369;BME280;40266;52.434;17.056;2024-02-21T18:16:19;100289.10;;;8.07;100.00
54369;BME280;40266;52.434;17.056;2024-02-21T18:19:43;100284.09;;;8.05;100.00
54369;BME280;40266;52.434;17.056;2024-02-21T18:23:09;100281.65;;;8.05;100.00
54369;BME280;40266;52.434;17.056;2024-02-21T18:26:16;100278.73;;;8.03;100.00
54369;BME280;40266;52.434;17.056;2024-02-21T18:29:50;100280.15;;;8.01;100.00
54369;BME280;40266;52.434;17.056;2024-02-21T18:33:01;100281.55;;;8.00;100.00
54369;BME280;40266;52.434;17.056;2024-02-21T18:35:52;100276.87;;;7.99;100.00
54369;BME280;40266;52.434;17.056;2024-02-21T18:42:08;100278.87;;;7.92;100.00
54369;BME280;40266;52.434;17.056;2024-02-21T18:45:23;100278.39;;;7.89;100.00
54369;BME280;40266;52.434;17.056;2024-02-21T18:48:19;100280.19;;;7.85;100.00
54369;BME280;40266;52.434;17.056;2024-02-21T18:51:35;100280.78;;;7.79;100.00
54369;BME280;40266;52.434;17.056;2024-02-21T18:55:01;100275.42;;;7.76;100.00
54369;BME280;40266;52.434;17.056;2024-02-21T18:58:25;100278.75;;;7.73;100.00
54369;BME280;40266;52.434;17.056;2024-02-21T19:01:43;100274.98;;;7.69;100.00
54369;BME280;40266;52.434;17.056;2024-02-21T19:05:38;100271.23;;;7.64;100.00
54369;BME280;40266;52.434;17.056;2024-02-21T19:15:19;100259.58;;;7.49;100.00
54369;BME280;40266;52.434;17.056;2024-02-21T19:22:03;100258.67;;;7.36;100.00
54369;BME280;40266;52.434;17.056;2024-02-21T19:24:59;100257.52;;;7.31;100.00
54369;BME280;40266;52.434;17.056;2024-02-21T19:27:57;100251.84;;;7.25;100.00
54369;BME280;40266;52.434;17.056;2024-02-21T19:31:35;100246.87;;;7.20;100.00
54369;BME280;40266;52.434;17.056;2024-02-21T19:34:41;100247.44;;;7.15;100.00
54369;BME280;40266;52.434;17.056;2024-02-21T19:41:42;100240.62;;;7.03;100.00
54369;BME280;40266;52.434;17.056;2024-02-21T19:55:54;100219.48;;;6.97;100.00
54369;BME280;40266;52.434;17.056;2024-02-21T19:58:58;100218.43;;;6.98;100.00
54369;BME280;40266;52.434;17.056;2024-02-21T20:02:47;100209.92;;;7.00;100.00
54369;BME280;40266;52.434;17.056;2024-02-21T20:05:51;100206.23;;;7.03;100.00
54369;BME280;40266;52.434;17.056;2024-02-21T20:08:40;100200.13;;;7.06;100.00
54369;BME280;40266;52.434;17.056;2024-02-21T20:11:49;100195.05;;;7.09;100.00
54369;BME280;40266;52.434;17.056;2024-02-21T20:14:58;100192.23;;;7.14;100.00
54369;BME280;40266;52.434;17.056;2024-02-21T20:18:18;100188.39;;;7.15;100.00
54369;BME280;40266;52.434;17.056;2024-02-21T20:21:13;100184.38;;;7.17;100.00
54369;BME280;40266;52.434;17.056;2024-02-21T20:25:01;100176.07;;;7.15;100.00
54369;BME280;40266;52.434;17.056;2024-02-21T20:31:22;100165.68;;;7.12;100.00
54369;BME280;40266;52.434;17.056;2024-02-21T20:34:44;100159.32;;;7.07;100.00
54369;BME280;40266;52.434;17.056;2024-02-21T20:37:58;100154.16;;;7.02;100.00
54369;BME280;40266;52.434;17.056;2024-02-21T20:40:45;100146.21;;;6.98;100.00
54369;BME280;40266;52.434;17.056;2024-02-21T20:43:49;100143.32;;;6.93;100.00
54369;BME280;40266;52.434;17.056;2024-02-21T20:47:23;100137.48;;;6.89;100.00
54369;BME280;40266;52.434;17.056;2024-02-21T20:50:21;100130.92;;;6.83;100.00
54369;BME280;40266;52.434;17.056;2024-02-21T20:53:27;100124.93;;;6.76;100.00
54369;BME280;40266;52.434;17.056;2024-02-21T21:00:20;100107.03;;;6.63;100.00
54369;BME280;40266;52.434;17.056;2024-02-21T21:07:07;100101.96;;;6.49;100.00
54369;BME280;40266;52.434;17.056;2024-02-21T21:18:21;100090.21;;;6.24;100.00
54369;BME280;40266;52.434;17.056;2024-02-21T21:22:00;100089.41;;;6.17;100.00
54369;BME280;40266;52.434;17.056;2024-02-21T21:25:34;100091.05;;;6.10;100.00
54369;BME280;40266;52.434;17.056;2024-02-21T21:29:03;100083.64;;;6.04;100.00
54369;BME280;40266;52.434;17.056;2024-02-21T21:32:25;100078.31;;;5.97;100.00
54369;BME280;40266;52.434;17.056;2024-02-21T21:46:01;100068.77;;;5.74;100.00
54369;BME280;40266;52.434;17.056;2024-02-21T21:59:59;100040.36;;;5.48;100.00
54369;BME280;40266;52.434;17.056;2024-02-21T22:07:36;100022.09;;;5.36;100.00
54369;BME280;40266;52.434;17.056;2024-02-21T22:11:27;100025.93;;;5.30;100.00
54369;BME280;40266;52.434;17.056;2024-02-21T22:19:18;100016.50;;;5.14;100.00
54369;BME280;40266;52.434;17.056;2024-02-21T22:29:28;100003.27;;;4.95;100.00
54369;BME280;40266;52.434;17.056;2024-02-21T22:36:40;99989.00;;;4.78;100.00
54369;BME280;40266;52.434;17.056;2024-02-21T22:44:17;99987.20;;;4.57;100.00
54369;BME280;40266;52.434;17.056;2024-02-21T22:54:19;99980.69;;;4.40;100.00
54369;BME280;40266;52.434;17.056;2024-02-21T23:04:46;99968.78;;;4.34;100.00
54369;BME280;40266;52.434;17.056;2024-02-21T23:12:06;99959.27;;;4.35;100.00
54369;BME280;40266;52.434;17.056;2024-02-21T23:15:49;99960.13;;;4.38;100.00
54369;BME280;40266;52.434;17.056;2024-02-21T23:19:31;99950.59;;;4.41;100.00
54369;BME280;40266;52.434;17.056;2024-02-21T23:22:55;99944.19;;;4.44;100.00
54369;BME280;40266;52.434;17.056;2024-02-21T23:26:05;99943.13;;;4.48;100.00
54369;BME280;40266;52.434;17.056;2024-02-21T23:29:33;99928.43;;;4.51;100.00
54369;BME280;40266;52.434;17.056;2024-02-21T23:40:01;99903.69;;;4.53;100.00
54369;BME280;40266;52.434;17.056;2024-02-21T23:42:45;99898.52;;;4.53;100.00
54369;BME280;40266;52.434;17.056;2024-02-21T23:45:42;99889.16;;;4.52;100.00
54369;BME280;40266;52.434;17.056;2024-02-21T23:53:19;99882.43;;;4.49;100.00
54369;BME280;40266;52.434;17.056;2024-02-21T23:56:34;99873.64;;;4.47;100.00
54369;BME280;40266;52.434;17.056;2024-02-21T23:59:42;99864.84;;;4.42;100.00
